Time;durP1;ratioP1;P1;durP2;ratioP2;P2;SDS_P1;SDS_P2;PMS_P1;PMS_P2;Temp;Humidity;BMP_temperature;BMP_pressure;BME280_temperature;BME280_humidity;BME280_pressure;Samples;Min_cycle;Max_cycle;Signal;HPM_P1;HPM_P2
2023/12/21 00:03:45;;;;;;;2.13;1.90;;;;;;;;;;6155331;23;20031;-89
2023/12/21 00:10:07;;;;;;;5.97;2.20;;;;;;;;;;6157713;23;20396;-89
2023/12/21 00:12:51;;;;;;;1.90;1.80;;;;;;;;;;6150974;23;20467;-88
2023/12/21 00:15:35;;;;;;;2.58;2.00;;;;;;;;;;6149513;23;20051;-88
2023/12/21 00:18:19;;;;;;;3.38;2.25;;;;;;;;;;6150232;23;20470;-86
2023/12/21 00:21:03;;;;;;;2.97;2.17;;;;;;;;;;6151000;23;20097;-90
2023/12/21 00:23:49;;;;;;;5.68;2.63;;;;;;;;;;6149946;23;20394;-85
2023/12/21 00:30:16;;;;;;;3.15;2.22;;;;;;;;;;6165388;23;20072;-89
2023/12/21 00:33:04;;;;;;;10.32;3.05;;;;;;;;;;6173189;23;20094;-90
2023/12/21 00:55:36;;;;;;;13.93;3.50;;;;;;;;;;6147574;23;20012;-89
2023/12/21 01:59:59;;;;;;;3.75;2.42;;;;;;;;;;6193936;22;20144;-89
2023/12/21 02:02:55;;;;;;;3.90;2.15;;;;;;;;;;6173047;23;20092;-91
2023/12/21 04:30:40;;;;;;;2.92;1.60;;;;;;;;;;6183458;22;20084;-88
2023/12/21 04:33:32;;;;;;;2.70;1.50;;;;;;;;;;6311864;22;20022;-89
2023/12/21 04:43:14;;;;;;;3.22;2.03;;;;;;;;;;6283598;22;20031;-90
2023/12/21 04:45:58;;;;;;;1.60;1.50;;;;;;;;;;6136382;22;20036;-92
2023/12/21 04:48:42;;;;;;;2.85;1.73;;;;;;;;;;6159203;23;20346;-89
2023/12/21 04:51:47;;;;;;;;;;;;;;;;;;;;;
2023/12/21 05:37:55;;;;;;;1.90;1.80;;;;;;;;;;6241974;22;20229;-90
2023/12/21 05:46:34;;;;;;;4.53;2.00;;;;;;;;;;6201399;22;20027;-90
2023/12/21 05:49:18;;;;;;;7.80;2.10;;;;;;;;;;6315545;22;20449;-89
2023/12/21 05:55:33;;;;;;;1.85;1.75;;;;;;;;;;6316267;22;20396;-89
2023/12/21 06:16:37;;;;;;;2.15;1.77;;;;;;;;;;6307815;22;20063;-89
2023/12/21 06:51:25;;;;;;;6.47;2.42;;;;;;;;;;6268569;22;20445;-89
2023/12/21 06:54:10;;;;;;;8.98;5.28;;;;;;;;;;6311915;22;20073;-85
2023/12/21 06:56:54;;;;;;;9.70;4.95;;;;;;;;;;6306964;22;20145;-89
2023/12/21 06:59:38;;;;;;;10.88;5.47;;;;;;;;;;6303267;22;20447;-84
2023/12/21 07:02:22;;;;;;;7.72;5.00;;;;;;;;;;6304181;22;20049;-85
2023/12/21 07:05:06;;;;;;;7.85;4.30;;;;;;;;;;6304481;22;20014;-87
2023/12/21 07:07:50;;;;;;;10.57;4.65;;;;;;;;;;6305084;22;20065;-86
2023/12/21 07:10:34;;;;;;;4.90;3.58;;;;;;;;;;6303455;22;20346;-83
2023/12/21 07:13:17;;;;;;;10.52;4.03;;;;;;;;;;6303032;22;20393;-82
2023/12/21 07:16:02;;;;;;;8.30;4.15;;;;;;;;;;6304373;22;20060;-82
2023/12/21 07:18:46;;;;;;;10.02;3.92;;;;;;;;;;6302715;22;20021;-81
2023/12/21 07:21:30;;;;;;;9.75;4.50;;;;;;;;;;6304455;22;20019;-83
2023/12/21 07:24:14;;;;;;;6.97;3.90;;;;;;;;;;6302365;22;20014;-84
2023/12/21 07:26:58;;;;;;;6.95;4.57;;;;;;;;;;6304340;22;20519;-83
2023/12/21 07:29:44;;;;;;;10.63;5.85;;;;;;;;;;6303148;22;20045;-83
2023/12/21 07:32:29;;;;;;;5.03;3.92;;;;;;;;;;6302822;22;20101;-84
2023/12/21 07:35:13;;;;;;;4.70;4.22;;;;;;;;;;6303466;22;20018;-88
2023/12/21 07:37:56;;;;;;;5.75;4.60;;;;;;;;;;6303537;22;20614;-85
2023/12/21 07:40:40;;;;;;;12.02;4.40;;;;;;;;;;6305771;22;20069;-88
2023/12/21 07:43:24;;;;;;;6.07;3.97;;;;;;;;;;6308762;22;20069;-86
2023/12/21 07:46:08;;;;;;;8.50;4.68;;;;;;;;;;6308664;22;20072;-88
2023/12/21 07:48:55;;;;;;;7.15;4.20;;;;;;;;;;6308880;22;20019;-88
2023/12/21 07:51:38;;;;;;;6.55;4.60;;;;;;;;;;6308371;22;20342;-87
2023/12/21 07:54:23;;;;;;;13.25;3.25;;;;;;;;;;6309389;22;20060;-89
2023/12/21 07:57:08;;;;;;;11.38;4.60;;;;;;;;;;6308716;22;20148;-90
2023/12/21 07:59:52;;;;;;;7.38;4.00;;;;;;;;;;6309229;22;20019;-88
2023/12/21 08:06:21;;;;;;;6.47;4.32;;;;;;;;;;6309820;22;20366;-85
2023/12/21 08:09:05;;;;;;;7.47;4.22;;;;;;;;;;6308077;22;20022;-86
2023/12/21 08:11:49;;;;;;;6.57;4.90;;;;;;;;;;6307066;22;20061;-87
2023/12/21 08:14:35;;;;;;;8.43;4.07;;;;;;;;;;6309497;22;20041;-87
2023/12/21 08:17:20;;;;;;;6.43;3.90;;;;;;;;;;6306858;22;20082;-87
2023/12/21 08:20:07;;;;;;;6.40;4.80;;;;;;;;;;6306912;22;20104;-86
2023/12/21 08:22:51;;;;;;;6.68;4.88;;;;;;;;;;6307086;22;20100;-87
2023/12/21 08:25:35;;;;;;;7.45;4.47;;;;;;;;;;6308755;22;20022;-88
2023/12/21 08:28:21;;;;;;;10.60;4.15;;;;;;;;;;6308128;22;20019;-88
2023/12/21 08:38:42;;;;;;;11.27;5.90;;;;;;;;;;6310650;22;20044;-89
2023/12/21 08:41:26;;;;;;;12.15;6.32;;;;;;;;;;6306810;22;20110;-90
2023/12/21 08:44:11;;;;;;;15.13;6.47;;;;;;;;;;6307076;22;20034;-87
2023/12/21 08:46:55;;;;;;;12.80;5.50;;;;;;;;;;6307131;22;20054;-87
2023/12/21 08:49:39;;;;;;;10.70;5.82;;;;;;;;;;6315966;22;20045;-88
2023/12/21 08:52:23;;;;;;;16.88;7.40;;;;;;;;;;6307312;22;20098;-89
2023/12/21 08:55:11;;;;;;;16.85;6.30;;;;;;;;;;6307238;22;20038;-89
2023/12/21 08:57:57;;;;;;;13.23;7.32;;;;;;;;;;6307079;22;20018;-91
2023/12/21 09:27:40;;;;;;;15.25;7.00;;;;;;;;;;6287171;22;20021;-90
2023/12/21 09:30:29;;;;;;;18.52;7.10;;;;;;;;;;6289039;22;20027;-90
2023/12/21 09:37:11;;;;;;;15.27;7.03;;;;;;;;;;6282666;22;20007;-89
2023/12/21 09:39:57;;;;;;;21.30;7.03;;;;;;;;;;6257575;22;20042;-90
2023/12/21 09:42:53;;;;;;;20.63;7.97;;;;;;;;;;6258935;22;20092;-90
2023/12/21 09:45:38;;;;;;;19.27;7.57;;;;;;;;;;6257991;22;20018;-90
2023/12/21 09:48:25;;;;;;;19.88;9.38;;;;;;;;;;6258473;22;20018;-90
2023/12/21 09:51:14;;;;;;;18.98;8.52;;;;;;;;;;6256226;22;20015;-89
2023/12/21 09:53:59;;;;;;;22.77;9.23;;;;;;;;;;6257677;22;20449;-89
2023/12/21 09:56:47;;;;;;;15.25;8.65;;;;;;;;;;6257462;22;20018;-89
2023/12/21 09:59:32;;;;;;;25.67;8.82;;;;;;;;;;6255837;22;20069;-89
2023/12/21 10:02:15;;;;;;;24.05;8.30;;;;;;;;;;6276492;22;20018;-85
2023/12/21 10:05:01;;;;;;;19.65;8.18;;;;;;;;;;6277240;22;20026;-89
2023/12/21 10:07:45;;;;;;;14.63;8.40;;;;;;;;;;6276727;22;20018;-89
2023/12/21 10:10:29;;;;;;;15.63;7.10;;;;;;;;;;6253397;22;20018;-86
2023/12/21 10:13:13;;;;;;;22.25;8.52;;;;;;;;;;6274219;22;20399;-86
2023/12/21 10:15:58;;;;;;;23.13;7.47;;;;;;;;;;6250940;22;20014;-85
2023/12/21 10:18:43;;;;;;;16.70;7.82;;;;;;;;;;6253291;22;20034;-86
2023/12/21 10:21:27;;;;;;;18.23;7.78;;;;;;;;;;6252481;22;20054;-87
2023/12/21 10:24:12;;;;;;;15.68;8.05;;;;;;;;;;6275630;22;20356;-86
2023/12/21 10:26:56;;;;;;;17.95;8.50;;;;;;;;;;6276674;22;20342;-88
2023/12/21 10:29:40;;;;;;;17.13;8.00;;;;;;;;;;6260409;22;20346;-85
2023/12/21 10:32:24;;;;;;;26.38;8.27;;;;;;;;;;6181575;23;20067;-86
2023/12/21 10:35:11;;;;;;;20.02;8.82;;;;;;;;;;6273693;22;20130;-86
2023/12/21 10:37:55;;;;;;;14.60;8.88;;;;;;;;;;6269138;22;20389;-86
2023/12/21 10:40:38;;;;;;;15.77;7.88;;;;;;;;;;6270853;22;20074;-88
2023/12/21 10:43:23;;;;;;;14.35;9.00;;;;;;;;;;6271054;22;20024;-88
2023/12/21 10:46:09;;;;;;;16.02;8.85;;;;;;;;;;6270544;22;20055;-86
2023/12/21 10:48:53;;;;;;;16.60;8.80;;;;;;;;;;6180314;23;20512;-87
2023/12/21 10:51:39;;;;;;;16.05;8.30;;;;;;;;;;6267764;22;20016;-86
2023/12/21 10:54:23;;;;;;;20.13;9.77;;;;;;;;;;6181037;23;20031;-87
2023/12/21 10:57:07;;;;;;;22.60;9.90;;;;;;;;;;6269230;22;20016;-83
2023/12/21 10:59:51;;;;;;;21.50;9.07;;;;;;;;;;6180429;23;20097;-84
2023/12/21 11:02:35;;;;;;;19.80;9.43;;;;;;;;;;6268324;22;20335;-82
2023/12/21 11:05:22;;;;;;;19.48;9.18;;;;;;;;;;6180951;23;20011;-83
2023/12/21 11:08:06;;;;;;;22.92;9.35;;;;;;;;;;6268806;22;20139;-83
2023/12/21 11:10:51;;;;;;;16.58;9.32;;;;;;;;;;6180542;23;20021;-82
2023/12/21 11:13:35;;;;;;;20.13;9.20;;;;;;;;;;6180456;23;20340;-83
2023/12/21 11:16:21;;;;;;;21.67;9.73;;;;;;;;;;6269284;22;20020;-84
2023/12/21 11:19:06;;;;;;;19.73;10.00;;;;;;;;;;6270434;22;20070;-87
2023/12/21 11:21:51;;;;;;;22.02;9.65;;;;;;;;;;6271530;22;20028;-91
2023/12/21 11:24:35;;;;;;;26.13;10.30;;;;;;;;;;6271812;22;20024;-89
2023/12/21 11:27:20;;;;;;;19.92;9.80;;;;;;;;;;6270138;22;20067;-84
2023/12/21 11:30:14;;;;;;;23.55;9.57;;;;;;;;;;6270115;22;20092;-83
2023/12/21 11:33:06;;;;;;;19.45;10.02;;;;;;;;;;6182088;23;20017;-84
2023/12/21 11:35:53;;;;;;;20.88;10.52;;;;;;;;;;6181481;23;20063;-84
2023/12/21 11:38:41;;;;;;;20.40;6.90;;;;;;;;;;6270329;22;20078;-83
2023/12/21 11:41:25;;;;;;;21.63;7.75;;;;;;;;;;6181203;23;20347;-85
2023/12/21 11:44:11;;;;;;;19.05;8.35;;;;;;;;;;6270620;22;20043;-88
2023/12/21 11:46:58;;;;;;;16.48;8.05;;;;;;;;;;6183523;23;20032;-88
2023/12/21 11:49:42;;;;;;;16.90;8.40;;;;;;;;;;6270382;22;20340;-84
2023/12/21 11:52:26;;;;;;;25.65;9.05;;;;;;;;;;6269743;22;20017;-83
2023/12/21 11:55:10;;;;;;;19.70;7.95;;;;;;;;;;6269950;22;20061;-83
2023/12/21 11:58:13;;;;;;;13.27;7.30;;;;;;;;;;6269821;22;20021;-86
2023/12/21 12:00:58;;;;;;;18.92;7.50;;;;;;;;;;6270040;22;20023;-84
2023/12/21 12:03:43;;;;;;;21.55;8.38;;;;;;;;;;6269699;22;20051;-82
2023/12/21 12:06:28;;;;;;;20.08;8.15;;;;;;;;;;6181419;23;20100;-82
2023/12/21 12:09:12;;;;;;;26.98;7.00;;;;;;;;;;6269072;22;20063;-82
2023/12/21 12:11:57;;;;;;;22.52;9.27;;;;;;;;;;6269742;22;20019;-82
2023/12/21 12:14:41;;;;;;;19.35;7.28;;;;;;;;;;6269720;22;20094;-85
2023/12/21 12:17:26;;;;;;;19.65;7.30;;;;;;;;;;6270291;22;20023;-83
2023/12/21 12:20:11;;;;;;;20.88;7.60;;;;;;;;;;6181544;23;20023;-85
2023/12/21 12:22:54;;;;;;;24.88;9.13;;;;;;;;;;6182159;23;20028;-84
2023/12/21 12:25:38;;;;;;;16.17;6.90;;;;;;;;;;6270637;22;20020;-86
2023/12/21 12:28:24;;;;;;;29.73;7.43;;;;;;;;;;6270834;22;20047;-87
2023/12/21 12:31:08;;;;;;;18.77;8.00;;;;;;;;;;6270503;22;20075;-84
2023/12/21 12:33:53;;;;;;;26.02;8.88;;;;;;;;;;6183610;23;20020;-86
2023/12/21 12:36:37;;;;;;;22.80;8.38;;;;;;;;;;6270700;22;20051;-83
2023/12/21 12:39:21;;;;;;;69.43;61.30;;;;;;;;;;6275158;22;20024;-84
2023/12/21 12:42:06;;;;;;;41.90;27.70;;;;;;;;;;6183182;23;20074;-86
2023/12/21 12:44:51;;;;;;;32.90;8.68;;;;;;;;;;6270541;22;20020;-85
2023/12/21 12:47:35;;;;;;;32.95;8.45;;;;;;;;;;6270377;22;20048;-84
2023/12/21 12:50:23;;;;;;;22.15;7.18;;;;;;;;;;6270297;22;20796;-84
2023/12/21 12:53:10;;;;;;;26.20;8.57;;;;;;;;;;6270051;22;20055;-84
2023/12/21 12:55:55;;;;;;;25.85;7.75;;;;;;;;;;6271171;22;20100;-85
2023/12/21 12:58:40;;;;;;;19.70;7.18;;;;;;;;;;6181978;23;20031;-86
2023/12/21 13:01:25;;;;;;;25.38;7.97;;;;;;;;;;6271741;22;20103;-89
2023/12/21 13:04:11;;;;;;;25.63;7.80;;;;;;;;;;6272602;22;20090;-90
2023/12/21 13:06:55;;;;;;;19.33;8.23;;;;;;;;;;6183245;23;20074;-82
2023/12/21 13:09:39;;;;;;;24.40;9.38;;;;;;;;;;6182671;23;20474;-85
2023/12/21 13:12:23;;;;;;;21.23;8.35;;;;;;;;;;6182489;23;20021;-83
2023/12/21 13:15:08;;;;;;;23.52;8.13;;;;;;;;;;6181250;23;20079;-84
2023/12/21 13:17:52;;;;;;;20.05;8.07;;;;;;;;;;6269923;22;20161;-86
2023/12/21 13:20:41;;;;;;;21.85;7.57;;;;;;;;;;6181158;23;20070;-87
2023/12/21 13:23:33;;;;;;;28.38;7.85;;;;;;;;;;6181352;23;20055;-84
2023/12/21 13:26:28;;;;;;;25.65;6.97;;;;;;;;;;6270027;22;20077;-87
2023/12/21 13:29:12;;;;;;;29.17;7.10;;;;;;;;;;6306796;22;20023;-85
2023/12/21 13:31:56;;;;;;;26.20;7.93;;;;;;;;;;6306276;22;20018;-86
2023/12/21 13:34:49;;;;;;;37.45;7.53;;;;;;;;;;6306665;22;20030;-87
2023/12/21 13:37:33;;;;;;;20.77;5.43;;;;;;;;;;6306756;22;20019;-85
2023/12/21 13:40:17;;;;;;;28.45;5.95;;;;;;;;;;6306592;22;20042;-84
2023/12/21 13:43:01;;;;;;;30.30;6.60;;;;;;;;;;6307303;22;20050;-84
2023/12/21 13:45:45;;;;;;;31.52;7.22;;;;;;;;;;6307664;22;20145;-84
2023/12/21 13:48:29;;;;;;;30.02;5.38;;;;;;;;;;6305371;22;20018;-85
2023/12/21 13:51:13;;;;;;;41.80;7.40;;;;;;;;;;6306665;22;20092;-83
2023/12/21 13:53:57;;;;;;;31.80;6.30;;;;;;;;;;6306870;22;20022;-84
2023/12/21 13:56:42;;;;;;;30.38;6.47;;;;;;;;;;6308113;22;20014;-85
2023/12/21 13:59:26;;;;;;;29.40;6.05;;;;;;;;;;6306253;22;20468;-85
2023/12/21 14:02:10;;;;;;;22.15;5.95;;;;;;;;;;6306263;22;20551;-84
2023/12/21 14:04:54;;;;;;;20.13;5.82;;;;;;;;;;6307927;22;20094;-85
2023/12/21 14:07:38;;;;;;;33.05;6.75;;;;;;;;;;6307618;22;20080;-85
2023/12/21 14:10:22;;;;;;;45.17;7.82;;;;;;;;;;6305907;22;20065;-87
2023/12/21 14:13:05;;;;;;;39.58;7.45;;;;;;;;;;6307595;22;20014;-85
2023/12/21 14:15:49;;;;;;;32.90;7.15;;;;;;;;;;6307892;22;20014;-86
2023/12/21 14:18:33;;;;;;;40.53;8.32;;;;;;;;;;6307618;22;20086;-86
2023/12/21 14:21:17;;;;;;;25.50;7.07;;;;;;;;;;6307294;22;20017;-85
2023/12/21 14:24:01;;;;;;;29.17;7.00;;;;;;;;;;6306588;22;20069;-86
2023/12/21 14:26:45;;;;;;;38.22;8.65;;;;;;;;;;6307139;22;20018;-87
2023/12/21 14:29:29;;;;;;;31.85;6.18;;;;;;;;;;6307807;22;20026;-87
2023/12/21 14:32:13;;;;;;;20.35;5.72;;;;;;;;;;6307588;22;20042;-86
2023/12/21 14:34:57;;;;;;;24.48;7.55;;;;;;;;;;6307567;22;20018;-87
2023/12/21 14:37:40;;;;;;;31.00;6.97;;;;;;;;;;6306542;22;20087;-89
2023/12/21 14:40:25;;;;;;;34.33;7.97;;;;;;;;;;6306291;22;20480;-88
2023/12/21 14:43:09;;;;;;;50.17;7.82;;;;;;;;;;6305996;22;20162;-86
2023/12/21 14:45:53;;;;;;;36.92;7.65;;;;;;;;;;6306217;22;20464;-85
2023/12/21 14:48:37;;;;;;;38.83;8.18;;;;;;;;;;6305847;22;20018;-86
2023/12/21 14:51:21;;;;;;;37.92;8.07;;;;;;;;;;6306591;22;20068;-89
2023/12/21 14:54:08;;;;;;;40.42;7.57;;;;;;;;;;6306254;22;20026;-90
2023/12/21 14:56:52;;;;;;;28.88;6.82;;;;;;;;;;6306571;22;20011;-90
2023/12/21 14:59:36;;;;;;;36.55;6.75;;;;;;;;;;6306211;22;20018;-87
2023/12/21 15:02:23;;;;;;;39.42;7.13;;;;;;;;;;6305936;22;20026;-88
2023/12/21 15:05:08;;;;;;;39.88;8.73;;;;;;;;;;6306177;22;20011;-87
2023/12/21 15:07:55;;;;;;;27.92;6.45;;;;;;;;;;6307058;22;20018;-88
2023/12/21 15:14:39;;;;;;;22.95;7.70;;;;;;;;;;6309740;22;20010;-87
2023/12/21 15:17:23;;;;;;;26.80;6.72;;;;;;;;;;6307427;22;20096;-88
2023/12/21 15:20:08;;;;;;;26.60;6.65;;;;;;;;;;6306648;22;20021;-89
2023/12/21 15:23:22;;;;;;;31.60;6.95;;;;;;;;;;6307174;22;20022;-87
2023/12/21 15:26:06;;;;;;;26.35;7.22;;;;;;;;;;6305951;22;20353;-87
2023/12/21 15:28:50;;;;;;;27.35;6.75;;;;;;;;;;6306999;22;20130;-86
2023/12/21 15:31:35;;;;;;;31.60;7.05;;;;;;;;;;6307003;22;20019;-85
2023/12/21 15:34:18;;;;;;;26.92;7.57;;;;;;;;;;6307150;22;20019;-85
2023/12/21 15:37:03;;;;;;;26.55;6.78;;;;;;;;;;6306110;22;20068;-89
2023/12/21 15:39:46;;;;;;;28.85;7.13;;;;;;;;;;6305476;22;20018;-85
2023/12/21 15:42:30;;;;;;;26.02;7.20;;;;;;;;;;6306980;22;20022;-82
2023/12/21 15:45:14;;;;;;;40.92;9.32;;;;;;;;;;6305496;22;20021;-84
2023/12/21 15:47:58;;;;;;;27.83;8.18;;;;;;;;;;6306790;22;20099;-84
2023/12/21 15:50:46;;;;;;;22.55;6.03;;;;;;;;;;6305114;22;20341;-84
2023/12/21 15:53:30;;;;;;;18.58;5.85;;;;;;;;;;6306603;22;20065;-85
2023/12/21 15:56:14;;;;;;;29.92;7.18;;;;;;;;;;6306582;22;20018;-87
2023/12/21 15:58:58;;;;;;;27.35;7.00;;;;;;;;;;6305344;22;20046;-85
2023/12/21 16:01:42;;;;;;;32.67;7.05;;;;;;;;;;6304687;22;20021;-83
2023/12/21 16:04:26;;;;;;;30.10;6.32;;;;;;;;;;6309023;22;20333;-84
2023/12/21 16:07:11;;;;;;;25.60;6.20;;;;;;;;;;6307288;22;20041;-83
2023/12/21 16:09:54;;;;;;;26.83;5.78;;;;;;;;;;6306475;22;20069;-83
2023/12/21 16:12:42;;;;;;;24.15;6.05;;;;;;;;;;6308315;22;20033;-84
2023/12/21 16:15:26;;;;;;;22.52;5.28;;;;;;;;;;6307031;22;20014;-83
2023/12/21 16:18:10;;;;;;;27.85;6.32;;;;;;;;;;6307085;22;20014;-84
2023/12/21 16:20:54;;;;;;;24.08;5.18;;;;;;;;;;6306933;22;20095;-82
2023/12/21 16:23:38;;;;;;;30.83;6.05;;;;;;;;;;6307874;22;20058;-84
2023/12/21 16:26:23;;;;;;;24.65;4.68;;;;;;;;;;6307633;22;20021;-83
2023/12/21 16:29:07;;;;;;;22.25;6.10;;;;;;;;;;6307174;22;20103;-83
2023/12/21 16:31:52;;;;;;;26.50;6.13;;;;;;;;;;6308711;22;20387;-83
2023/12/21 16:34:45;;;;;;;26.13;6.15;;;;;;;;;;6309024;22;20338;-83
2023/12/21 16:37:29;;;;;;;30.40;7.97;;;;;;;;;;6307315;22;20014;-88
2023/12/21 16:40:16;;;;;;;27.35;6.90;;;;;;;;;;6306551;22;20230;-87
2023/12/21 16:43:00;;;;;;;27.17;6.93;;;;;;;;;;6307298;22;20014;-88
2023/12/21 16:45:44;;;;;;;26.98;6.45;;;;;;;;;;6305116;22;20353;-88
2023/12/21 16:48:28;;;;;;;26.58;6.57;;;;;;;;;;6306963;22;20379;-87
2023/12/21 16:51:13;;;;;;;23.20;6.07;;;;;;;;;;6305376;22;20409;-85
2023/12/21 16:53:57;;;;;;;36.60;7.28;;;;;;;;;;6306017;22;20392;-84
2023/12/21 16:56:43;;;;;;;30.40;6.93;;;;;;;;;;6307447;22;20394;-84
2023/12/21 16:59:27;;;;;;;23.83;6.93;;;;;;;;;;6307375;22;20049;-83
2023/12/21 17:36:29;;;;;;;30.33;7.40;;;;;;;;;;6179414;22;20052;-86
2023/12/21 17:42:37;;;;;;;37.75;8.68;;;;;;;;;;6180477;23;20509;-85
2023/12/21 17:45:29;;;;;;;50.78;8.38;;;;;;;;;;6269664;22;20462;-87
2023/12/21 17:48:15;;;;;;;49.35;10.15;;;;;;;;;;6269265;22;20047;-87
2023/12/21 17:54:28;;;;;;;42.17;8.70;;;;;;;;;;6184688;23;20062;-87
2023/12/21 17:57:12;;;;;;;43.83;8.20;;;;;;;;;;6270544;22;20102;-86
2023/12/21 17:59:56;;;;;;;32.90;7.25;;;;;;;;;;6269664;22;20397;-88
2023/12/21 18:02:41;;;;;;;37.83;9.23;;;;;;;;;;6270498;22;20024;-87
2023/12/21 18:05:25;;;;;;;38.78;7.43;;;;;;;;;;6270097;22;20024;-86
2023/12/21 18:08:11;;;;;;;32.13;7.97;;;;;;;;;;6268670;22;20102;-87
2023/12/21 18:10:55;;;;;;;32.60;7.40;;;;;;;;;;6269635;22;20385;-87
2023/12/21 18:13:39;;;;;;;31.80;7.85;;;;;;;;;;6269324;22;20062;-86
2023/12/21 18:16:34;;;;;;;;;;;;;;;;;;;;;
2023/12/21 18:19:20;;;;;;;39.05;7.43;;;;;;;;;;6181406;23;20524;-86
2023/12/21 18:22:06;;;;;;;38.10;8.25;;;;;;;;;;6267730;22;20051;-86
2023/12/21 18:24:52;;;;;;;26.35;7.43;;;;;;;;;;6268002;22;20020;-87
2023/12/21 18:35:06;;;;;;;34.28;7.32;;;;;;;;;;6180874;23;20028;-86
2023/12/21 18:37:50;;;;;;;35.28;7.65;;;;;;;;;;6159647;23;20028;-90
2023/12/21 18:40:34;;;;;;;32.20;8.50;;;;;;;;;;6160066;23;20020;-88
2023/12/21 18:43:28;;;;;;;33.25;8.07;;;;;;;;;;6159765;23;20108;-89
2023/12/21 18:50:36;;;;;;;28.63;7.50;;;;;;;;;;6181934;23;20108;-86
2023/12/21 18:57:32;;;;;;;;;;;;;;;;;;;;;
2023/12/21 19:07:57;;;;;;;29.10;6.38;;;;;;;;;;6182501;23;20517;-87
2023/12/21 19:10:42;;;;;;;27.17;6.93;;;;;;;;;;6158809;23;20047;-88
2023/12/21 19:13:32;;;;;;;20.80;6.82;;;;;;;;;;6158615;23;20078;-86
2023/12/21 19:16:21;;;;;;;30.77;6.80;;;;;;;;;;6159186;23;20402;-87
2023/12/21 19:19:23;;;;;;;28.60;6.47;;;;;;;;;;6159146;23;20020;-88
2023/12/21 19:22:11;;;;;;;33.35;6.18;;;;;;;;;;6159115;23;20090;-87
2023/12/21 19:28:13;;;;;;;24.50;6.20;;;;;;;;;;6181103;23;20046;-89
2023/12/21 19:31:18;;;;;;;;;;;;;;;;;;;;;
2023/12/21 19:37:36;;;;;;;18.92;5.60;;;;;;;;;;6178208;23;20108;-86
2023/12/21 19:40:20;;;;;;;26.45;7.13;;;;;;;;;;6270157;22;20051;-86
2023/12/21 19:43:04;;;;;;;33.17;6.53;;;;;;;;;;6270529;22;20047;-86
2023/12/21 19:45:48;;;;;;;16.05;5.45;;;;;;;;;;6183296;23;20023;-86
2023/12/21 19:48:37;;;;;;;16.33;5.03;;;;;;;;;;6182848;23;20074;-86
2023/12/21 19:54:57;;;;;;;11.13;3.77;;;;;;;;;;6182890;23;20011;-87
2023/12/21 19:57:42;;;;;;;11.93;4.57;;;;;;;;;;6184590;23;20226;-87
2023/12/21 20:00:26;;;;;;;18.15;6.18;;;;;;;;;;6272875;22;20446;-88
2023/12/21 20:03:13;;;;;;;12.43;4.07;;;;;;;;;;6270562;22;20056;-87
2023/12/21 20:05:57;;;;;;;10.38;4.22;;;;;;;;;;6270345;22;20040;-88
2023/12/21 20:08:41;;;;;;;13.82;4.10;;;;;;;;;;6268557;22;20021;-86
2023/12/21 20:11:26;;;;;;;15.88;5.55;;;;;;;;;;6180391;23;20042;-87
2023/12/21 20:14:10;;;;;;;19.27;5.05;;;;;;;;;;6180754;23;20351;-86
2023/12/21 20:16:54;;;;;;;13.05;4.47;;;;;;;;;;6180256;23;20074;-89
2023/12/21 20:19:38;;;;;;;21.58;4.90;;;;;;;;;;6269305;22;20067;-89
2023/12/21 20:22:22;;;;;;;13.98;4.32;;;;;;;;;;6268576;22;20505;-87
2023/12/21 20:25:07;;;;;;;16.00;3.83;;;;;;;;;;6180996;23;20039;-87
2023/12/21 20:27:52;;;;;;;11.52;4.05;;;;;;;;;;6267804;22;20039;-87
2023/12/21 20:30:36;;;;;;;10.48;4.28;;;;;;;;;;6269864;22;20028;-89
2023/12/21 20:33:20;;;;;;;10.98;3.50;;;;;;;;;;6271624;22;20505;-89
2023/12/21 20:36:04;;;;;;;10.45;3.28;;;;;;;;;;6270819;22;20466;-88
2023/12/21 20:38:48;;;;;;;8.90;4.15;;;;;;;;;;6269451;22;20031;-89
2023/12/21 20:41:32;;;;;;;8.88;3.88;;;;;;;;;;6267823;22;20024;-87
2023/12/21 20:44:16;;;;;;;15.30;4.30;;;;;;;;;;6267391;22;20020;-87
2023/12/21 20:47:00;;;;;;;11.55;4.55;;;;;;;;;;6180031;23;20023;-88
2023/12/21 20:49:44;;;;;;;16.33;5.35;;;;;;;;;;6268522;22;20403;-88
2023/12/21 20:52:29;;;;;;;11.30;5.10;;;;;;;;;;6267982;22;20020;-87
2023/12/21 20:55:16;;;;;;;23.10;6.00;;;;;;;;;;6266514;22;20050;-86
2023/12/21 20:58:02;;;;;;;23.08;5.40;;;;;;;;;;6266958;22;20062;-87
2023/12/21 21:00:46;;;;;;;16.15;4.88;;;;;;;;;;6266204;22;20098;-87
2023/12/21 21:03:36;;;;;;;13.90;5.40;;;;;;;;;;6268015;22;20496;-88
2023/12/21 21:06:22;;;;;;;9.90;4.05;;;;;;;;;;6265658;22;20138;-88
2023/12/21 21:09:09;;;;;;;14.50;5.05;;;;;;;;;;6268011;22;20028;-89
2023/12/21 21:11:53;;;;;;;13.73;4.28;;;;;;;;;;6267167;22;20017;-89
2023/12/21 21:14:37;;;;;;;13.52;3.95;;;;;;;;;;6267371;22;20396;-89
2023/12/21 21:17:23;;;;;;;15.52;4.13;;;;;;;;;;6267109;22;20059;-87
2023/12/21 21:20:08;;;;;;;14.18;4.25;;;;;;;;;;6180087;23;20027;-87
2023/12/21 21:22:52;;;;;;;25.08;5.57;;;;;;;;;;6180075;23;20517;-87
2023/12/21 21:25:36;;;;;;;23.60;5.43;;;;;;;;;;6267313;22;20506;-86
2023/12/21 21:28:23;;;;;;;30.13;6.43;;;;;;;;;;6267659;22;20482;-88
2023/12/21 21:31:12;;;;;;;32.22;7.00;;;;;;;;;;6180749;23;20039;-88
2023/12/21 21:33:56;;;;;;;40.38;8.45;;;;;;;;;;6268045;22;20344;-86
2023/12/21 21:36:41;;;;;;;42.63;7.45;;;;;;;;;;6267211;22;20453;-87
2023/12/21 21:39:25;;;;;;;42.70;8.23;;;;;;;;;;6266632;22;20347;-88
2023/12/21 21:42:09;;;;;;;35.08;8.80;;;;;;;;;;6267994;22;20024;-86
2023/12/21 21:44:53;;;;;;;44.30;8.15;;;;;;;;;;6268211;22;20347;-86
2023/12/21 21:47:37;;;;;;;44.78;9.23;;;;;;;;;;6267688;22;20355;-89
2023/12/21 21:50:21;;;;;;;46.53;8.52;;;;;;;;;;6268327;22;20393;-90
2023/12/21 21:53:05;;;;;;;31.08;5.63;;;;;;;;;;6267358;22;20017;-88
2023/12/21 21:55:49;;;;;;;15.35;4.18;;;;;;;;;;6267374;22;20092;-89
2023/12/21 21:58:34;;;;;;;12.85;3.60;;;;;;;;;;6268197;22;20074;-87
2023/12/21 22:01:18;;;;;;;12.65;3.83;;;;;;;;;;6266537;22;20039;-87
2023/12/21 22:04:03;;;;;;;6.57;2.97;;;;;;;;;;6267005;22;20015;-87
2023/12/21 22:06:49;;;;;;;9.95;3.10;;;;;;;;;;6266368;22;20079;-87
2023/12/21 22:09:33;;;;;;;17.23;3.47;;;;;;;;;;6267895;22;20405;-87
2023/12/21 22:12:17;;;;;;;15.00;3.45;;;;;;;;;;6268921;22;20347;-90
2023/12/21 22:15:04;;;;;;;15.25;4.13;;;;;;;;;;6180158;23;20071;-90
2023/12/21 22:17:48;;;;;;;14.07;3.95;;;;;;;;;;6268718;22;20462;-88
2023/12/21 22:20:33;;;;;;;24.48;5.72;;;;;;;;;;6270634;22;20039;-90
2023/12/21 22:23:18;;;;;;;37.95;7.07;;;;;;;;;;6269729;22;20078;-86
2023/12/21 22:26:04;;;;;;;44.10;7.43;;;;;;;;;;6268622;22;20024;-87
2023/12/21 22:29:01;;;;;;;;;;;;;;;;;;;;;
2023/12/21 22:31:46;;;;;;;56.75;8.90;;;;;;;;;;6191945;22;20016;-89
2023/12/21 22:34:30;;;;;;;62.30;10.82;;;;;;;;;;6268430;22;20067;-90
2023/12/21 22:37:34;;;;;;;65.43;12.02;;;;;;;;;;6180539;23;20016;-90
2023/12/21 22:40:18;;;;;;;58.33;10.90;;;;;;;;;;6128800;23;20036;-89
2023/12/21 22:43:02;;;;;;;64.75;11.70;;;;;;;;;;6128603;23;20024;-88
2023/12/21 22:45:46;;;;;;;63.05;11.98;;;;;;;;;;6127194;23;20373;-87
2023/12/21 22:48:30;;;;;;;66.85;11.77;;;;;;;;;;6128208;23;20387;-87
2023/12/21 22:51:14;;;;;;;70.47;12.18;;;;;;;;;;6127912;23;20074;-89
2023/12/21 22:54:01;;;;;;;57.28;10.95;;;;;;;;;;6128076;23;20059;-87
2023/12/21 22:56:45;;;;;;;66.00;12.32;;;;;;;;;;6127727;23;20021;-87
2023/12/21 22:59:31;;;;;;;68.53;11.80;;;;;;;;;;6127912;23;20024;-88
2023/12/21 23:02:15;;;;;;;64.00;12.50;;;;;;;;;;6128236;23;20121;-87
2023/12/21 23:05:03;;;;;;;60.03;11.48;;;;;;;;;;6128727;23;20051;-87
2023/12/21 23:07:48;;;;;;;62.80;11.63;;;;;;;;;;6128899;23;20056;-88
2023/12/21 23:10:32;;;;;;;64.35;11.38;;;;;;;;;;6150630;23;20020;-88
2023/12/21 23:13:19;;;;;;;76.35;13.25;;;;;;;;;;6131808;23;20845;-88
2023/12/21 23:16:09;;;;;;;92.38;15.55;;;;;;;;;;6131394;23;20521;-88
2023/12/21 23:18:53;;;;;;;85.60;13.77;;;;;;;;;;6132487;23;20036;-88
2023/12/21 23:21:37;;;;;;;91.55;15.68;;;;;;;;;;6132527;23;20128;-88
2023/12/21 23:24:22;;;;;;;77.45;12.93;;;;;;;;;;6133209;23;20063;-88
2023/12/21 23:27:06;;;;;;;69.57;11.52;;;;;;;;;;6133266;23;20462;-88
2023/12/21 23:29:51;;;;;;;93.65;13.15;;;;;;;;;;6132671;23;20047;-88
2023/12/21 23:32:44;;;;;;;74.57;13.68;;;;;;;;;;6132544;23;20348;-88
2023/12/21 23:35:28;;;;;;;65.23;11.30;;;;;;;;;;6132099;23;20534;-88
2023/12/21 23:38:12;;;;;;;59.03;11.40;;;;;;;;;;6138193;23;20330;-87
2023/12/21 23:41:01;;;;;;;80.25;11.32;;;;;;;;;;6272270;22;20079;-87
2023/12/21 23:43:45;;;;;;;76.78;13.45;;;;;;;;;;6272318;22;20393;-87
2023/12/21 23:46:29;;;;;;;67.22;13.40;;;;;;;;;;6272918;22;20099;-87
2023/12/21 23:49:14;;;;;;;68.05;11.93;;;;;;;;;;6271630;22;20040;-88
2023/12/21 23:51:58;;;;;;;60.67;11.63;;;;;;;;;;6272055;22;20020;-88
2023/12/21 23:54:42;;;;;;;82.03;13.00;;;;;;;;;;6271821;22;20096;-88
2023/12/21 23:57:25;;;;;;;56.65;11.60;;;;;;;;;;6271332;22;20500;-88
